sensor_id;sensor_type;location;lat;lon;timestamp;P1;durP1;ratioP1;P2;durP2;ratioP2
32198;SDS011;19221;42.656;21.156;2023-02-18T00:00:53;93.35;;;49.40;;
32198;SDS011;19221;42.656;21.156;2023-02-18T00:03:19;92.70;;;49.22;;
32198;SDS011;19221;42.656;21.156;2023-02-18T00:05:45;88.35;;;50.03;;
32198;SDS011;19221;42.656;21.156;2023-02-18T00:08:10;93.35;;;49.03;;
32198;SDS011;19221;42.656;21.156;2023-02-18T00:10:39;93.25;;;49.67;;
32198;SDS011;19221;42.656;21.156;2023-02-18T00:13:04;89.82;;;49.05;;
32198;SDS011;19221;42.656;21.156;2023-02-18T00:15:30;91.65;;;49.10;;
32198;SDS011;19221;42.656;21.156;2023-02-18T00:17:56;100.32;;;50.05;;
32198;SDS011;19221;42.656;21.156;2023-02-18T00:20:21;83.18;;;47.70;;
32198;SDS011;19221;42.656;21.156;2023-02-18T00:22:47;80.93;;;45.17;;
32198;SDS011;19221;42.656;21.156;2023-02-18T00:25:13;76.70;;;42.53;;
32198;SDS011;19221;42.656;21.156;2023-02-18T00:27:38;74.93;;;40.75;;
32198;SDS011;19221;42.656;21.156;2023-02-18T00:30:04;77.18;;;41.38;;
32198;SDS011;19221;42.656;21.156;2023-02-18T00:32:30;69.97;;;38.28;;
32198;SDS011;19221;42.656;21.156;2023-02-18T00:34:55;66.80;;;36.33;;
32198;SDS011;19221;42.656;21.156;2023-02-18T00:37:21;72.10;;;37.75;;
32198;SDS011;19221;42.656;21.156;2023-02-18T00:39:47;74.82;;;39.53;;
32198;SDS011;19221;42.656;21.156;2023-02-18T00:42:12;70.50;;;36.97;;
32198;SDS011;19221;42.656;21.156;2023-02-18T00:44:40;64.10;;;36.72;;
32198;SDS011;19221;42.656;21.156;2023-02-18T00:47:05;66.38;;;34.38;;
32198;SDS011;19221;42.656;21.156;2023-02-18T00:49:31;64.28;;;35.13;;
32198;SDS011;19221;42.656;21.156;2023-02-18T00:51:57;67.40;;;36.90;;
32198;SDS011;19221;42.656;21.156;2023-02-18T00:54:22;71.78;;;36.70;;
32198;SDS011;19221;42.656;21.156;2023-02-18T00:56:48;61.70;;;36.20;;
32198;SDS011;19221;42.656;21.156;2023-02-18T00:59:14;69.30;;;38.05;;
32198;SDS011;19221;42.656;21.156;2023-02-18T01:01:39;64.35;;;37.78;;
32198;SDS011;19221;42.656;21.156;2023-02-18T01:04:05;76.55;;;40.47;;
32198;SDS011;19221;42.656;21.156;2023-02-18T01:06:32;72.78;;;40.88;;
32198;SDS011;19221;42.656;21.156;2023-02-18T01:08:58;77.55;;;43.05;;
32198;SDS011;19221;42.656;21.156;2023-02-18T01:11:24;77.43;;;43.63;;
32198;SDS011;19221;42.656;21.156;2023-02-18T01:13:50;85.78;;;47.72;;
32198;SDS011;19221;42.656;21.156;2023-02-18T01:16:16;95.53;;;47.60;;
32198;SDS011;19221;42.656;21.156;2023-02-18T01:18:41;85.68;;;47.90;;
32198;SDS011;19221;42.656;21.156;2023-02-18T01:21:07;82.60;;;44.63;;
32198;SDS011;19221;42.656;21.156;2023-02-18T01:23:34;75.45;;;42.58;;
32198;SDS011;19221;42.656;21.156;2023-02-18T01:25:59;78.65;;;43.85;;
32198;SDS011;19221;42.656;21.156;2023-02-18T01:28:25;72.13;;;40.28;;
32198;SDS011;19221;42.656;21.156;2023-02-18T01:30:51;70.28;;;39.45;;
32198;SDS011;19221;42.656;21.156;2023-02-18T01:33:18;73.15;;;38.60;;
32198;SDS011;19221;42.656;21.156;2023-02-18T01:35:43;67.88;;;36.05;;
32198;SDS011;19221;42.656;21.156;2023-02-18T01:38:10;61.92;;;34.83;;
32198;SDS011;19221;42.656;21.156;2023-02-18T01:40:36;61.00;;;35.03;;
32198;SDS011;19221;42.656;21.156;2023-02-18T01:43:09;57.33;;;33.50;;
32198;SDS011;19221;42.656;21.156;2023-02-18T01:45:39;64.10;;;35.08;;
32198;SDS011;19221;42.656;21.156;2023-02-18T01:48:11;62.00;;;34.33;;
32198;SDS011;19221;42.656;21.156;2023-02-18T01:50:38;60.92;;;33.25;;
32198;SDS011;19221;42.656;21.156;2023-02-18T01:53:05;61.47;;;32.08;;
32198;SDS011;19221;42.656;21.156;2023-02-18T01:55:30;58.67;;;33.35;;
32198;SDS011;19221;42.656;21.156;2023-02-18T01:57:57;59.03;;;33.70;;
32198;SDS011;19221;42.656;21.156;2023-02-18T02:00:23;62.03;;;34.47;;
32198;SDS011;19221;42.656;21.156;2023-02-18T02:02:49;53.45;;;30.48;;
32198;SDS011;19221;42.656;21.156;2023-02-18T02:05:16;62.20;;;34.30;;
32198;SDS011;19221;42.656;21.156;2023-02-18T02:07:42;51.45;;;30.75;;
32198;SDS011;19221;42.656;21.156;2023-02-18T02:10:09;61.92;;;33.58;;
32198;SDS011;19221;42.656;21.156;2023-02-18T02:12:45;59.45;;;33.60;;
32198;SDS011;19221;42.656;21.156;2023-02-18T02:28:46;62.70;;;34.47;;
32198;SDS011;19221;42.656;21.156;2023-02-18T02:34:46;56.08;;;30.25;;
32198;SDS011;19221;42.656;21.156;2023-02-18T02:39:13;63.38;;;33.28;;
32198;SDS011;19221;42.656;21.156;2023-02-18T02:41:49;65.88;;;32.78;;
32198;SDS011;19221;42.656;21.156;2023-02-18T02:44:25;53.60;;;30.52;;
32198;SDS011;19221;42.656;21.156;2023-02-18T02:46:57;61.67;;;31.83;;
32198;SDS011;19221;42.656;21.156;2023-02-18T02:54:32;61.90;;;32.72;;
32198;SDS011;19221;42.656;21.156;2023-02-18T02:57:04;65.47;;;32.05;;
32198;SDS011;19221;42.656;21.156;2023-02-18T02:59:31;68.28;;;31.08;;
32198;SDS011;19221;42.656;21.156;2023-02-18T03:02:04;56.85;;;30.17;;
32198;SDS011;19221;42.656;21.156;2023-02-18T03:15:06;61.95;;;30.13;;
32198;SDS011;19221;42.656;21.156;2023-02-18T03:17:37;57.30;;;28.50;;
32198;SDS011;19221;42.656;21.156;2023-02-18T03:20:07;49.83;;;26.83;;
32198;SDS011;19221;42.656;21.156;2023-02-18T03:22:45;46.70;;;26.17;;
32198;SDS011;19221;42.656;21.156;2023-02-18T03:25:11;49.50;;;27.13;;
32198;SDS011;19221;42.656;21.156;2023-02-18T03:27:45;48.20;;;28.33;;
32198;SDS011;19221;42.656;21.156;2023-02-18T03:32:43;45.58;;;26.00;;
32198;SDS011;19221;42.656;21.156;2023-02-18T03:35:11;43.58;;;23.33;;
32198;SDS011;19221;42.656;21.156;2023-02-18T03:37:40;42.20;;;24.08;;
32198;SDS011;19221;42.656;21.156;2023-02-18T03:40:07;42.90;;;22.48;;
32198;SDS011;19221;42.656;21.156;2023-02-18T03:42:34;38.47;;;21.92;;
32198;SDS011;19221;42.656;21.156;2023-02-18T03:45:00;39.15;;;22.15;;
32198;SDS011;19221;42.656;21.156;2023-02-18T03:47:25;38.75;;;23.13;;
32198;SDS011;19221;42.656;21.156;2023-02-18T03:49:51;44.92;;;25.77;;
32198;SDS011;19221;42.656;21.156;2023-02-18T03:52:17;41.33;;;24.52;;
32198;SDS011;19221;42.656;21.156;2023-02-18T03:54:43;46.10;;;25.65;;
32198;SDS011;19221;42.656;21.156;2023-02-18T03:57:09;47.47;;;24.52;;
32198;SDS011;19221;42.656;21.156;2023-02-18T03:59:34;38.55;;;23.20;;
32198;SDS011;19221;42.656;21.156;2023-02-18T04:02:00;37.30;;;23.50;;
32198;SDS011;19221;42.656;21.156;2023-02-18T04:04:28;41.45;;;24.17;;
32198;SDS011;19221;42.656;21.156;2023-02-18T04:06:53;43.00;;;24.10;;
32198;SDS011;19221;42.656;21.156;2023-02-18T04:09:19;50.35;;;24.02;;
32198;SDS011;19221;42.656;21.156;2023-02-18T04:11:45;42.45;;;22.80;;
32198;SDS011;19221;42.656;21.156;2023-02-18T04:14:12;38.97;;;23.08;;
32198;SDS011;19221;42.656;21.156;2023-02-18T04:16:38;41.15;;;22.33;;
32198;SDS011;19221;42.656;21.156;2023-02-18T04:19:03;35.92;;;20.83;;
32198;SDS011;19221;42.656;21.156;2023-02-18T04:21:29;42.65;;;21.77;;
32198;SDS011;19221;42.656;21.156;2023-02-18T04:23:55;40.78;;;23.75;;
32198;SDS011;19221;42.656;21.156;2023-02-18T04:26:20;38.88;;;24.10;;
32198;SDS011;19221;42.656;21.156;2023-02-18T04:28:47;41.15;;;22.80;;
32198;SDS011;19221;42.656;21.156;2023-02-18T04:31:12;43.70;;;24.63;;
32198;SDS011;19221;42.656;21.156;2023-02-18T04:33:38;38.00;;;23.13;;
32198;SDS011;19221;42.656;21.156;2023-02-18T04:36:04;45.83;;;25.83;;
32198;SDS011;19221;42.656;21.156;2023-02-18T04:38:29;41.75;;;24.40;;
32198;SDS011;19221;42.656;21.156;2023-02-18T04:40:55;42.33;;;26.48;;
32198;SDS011;19221;42.656;21.156;2023-02-18T04:43:21;40.83;;;23.88;;
32198;SDS011;19221;42.656;21.156;2023-02-18T04:45:46;56.90;;;31.98;;
32198;SDS011;19221;42.656;21.156;2023-02-18T04:48:12;39.92;;;23.48;;
32198;SDS011;19221;42.656;21.156;2023-02-18T04:50:38;49.08;;;26.83;;
32198;SDS011;19221;42.656;21.156;2023-02-18T04:53:03;36.05;;;20.30;;
32198;SDS011;19221;42.656;21.156;2023-02-18T04:55:29;81.45;;;41.30;;
32198;SDS011;19221;42.656;21.156;2023-02-18T04:57:54;55.63;;;31.80;;
32198;SDS011;19221;42.656;21.156;2023-02-18T05:00:20;54.17;;;29.75;;
32198;SDS011;19221;42.656;21.156;2023-02-18T05:02:46;41.80;;;22.52;;
32198;SDS011;19221;42.656;21.156;2023-02-18T05:05:12;45.97;;;25.08;;
32198;SDS011;19221;42.656;21.156;2023-02-18T05:07:38;39.45;;;24.00;;
32198;SDS011;19221;42.656;21.156;2023-02-18T05:10:04;41.95;;;22.80;;
32198;SDS011;19221;42.656;21.156;2023-02-18T05:12:30;37.47;;;21.25;;
32198;SDS011;19221;42.656;21.156;2023-02-18T05:14:56;37.95;;;19.70;;
32198;SDS011;19221;42.656;21.156;2023-02-18T05:17:21;41.42;;;18.90;;
32198;SDS011;19221;42.656;21.156;2023-02-18T05:19:47;37.45;;;20.88;;
32198;SDS011;19221;42.656;21.156;2023-02-18T05:22:13;32.70;;;19.85;;
32198;SDS011;19221;42.656;21.156;2023-02-18T05:24:38;34.53;;;20.08;;
32198;SDS011;19221;42.656;21.156;2023-02-18T05:27:04;38.47;;;21.15;;
32198;SDS011;19221;42.656;21.156;2023-02-18T05:29:30;35.80;;;19.70;;
32198;SDS011;19221;42.656;21.156;2023-02-18T05:31:55;41.60;;;22.00;;
32198;SDS011;19221;42.656;21.156;2023-02-18T05:34:21;44.85;;;21.30;;
32198;SDS011;19221;42.656;21.156;2023-02-18T05:36:47;39.05;;;20.65;;
32198;SDS011;19221;42.656;21.156;2023-02-18T05:39:12;37.15;;;19.92;;
32198;SDS011;19221;42.656;21.156;2023-02-18T05:41:38;44.38;;;22.00;;
32198;SDS011;19221;42.656;21.156;2023-02-18T05:44:04;44.45;;;21.02;;
32198;SDS011;19221;42.656;21.156;2023-02-18T05:46:47;47.92;;;23.48;;
32198;SDS011;19221;42.656;21.156;2023-02-18T05:49:13;40.65;;;21.02;;
32198;SDS011;19221;42.656;21.156;2023-02-18T05:51:39;38.33;;;19.83;;
32198;SDS011;19221;42.656;21.156;2023-02-18T05:54:04;40.20;;;20.70;;
32198;SDS011;19221;42.656;21.156;2023-02-18T05:56:30;41.25;;;21.02;;
32198;SDS011;19221;42.656;21.156;2023-02-18T05:58:56;44.35;;;21.05;;
32198;SDS011;19221;42.656;21.156;2023-02-18T06:01:21;41.03;;;21.35;;
32198;SDS011;19221;42.656;21.156;2023-02-18T06:03:47;39.38;;;21.85;;
32198;SDS011;19221;42.656;21.156;2023-02-18T06:06:13;42.00;;;21.38;;
32198;SDS011;19221;42.656;21.156;2023-02-18T06:08:38;40.92;;;22.60;;
32198;SDS011;19221;42.656;21.156;2023-02-18T06:11:04;41.33;;;22.17;;
32198;SDS011;19221;42.656;21.156;2023-02-18T06:13:30;45.65;;;23.58;;
32198;SDS011;19221;42.656;21.156;2023-02-18T06:15:55;43.35;;;24.50;;
32198;SDS011;19221;42.656;21.156;2023-02-18T06:18:21;43.00;;;25.17;;
32198;SDS011;19221;42.656;21.156;2023-02-18T06:20:47;42.08;;;24.80;;
32198;SDS011;19221;42.656;21.156;2023-02-18T06:23:13;51.05;;;25.63;;
32198;SDS011;19221;42.656;21.156;2023-02-18T06:25:39;45.50;;;24.63;;
32198;SDS011;19221;42.656;21.156;2023-02-18T06:28:05;48.45;;;25.20;;
32198;SDS011;19221;42.656;21.156;2023-02-18T06:30:31;48.38;;;26.85;;
32198;SDS011;19221;42.656;21.156;2023-02-18T06:32:57;49.90;;;26.10;;
32198;SDS011;19221;42.656;21.156;2023-02-18T06:35:22;49.72;;;26.50;;
32198;SDS011;19221;42.656;21.156;2023-02-18T06:37:48;56.10;;;27.95;;
32198;SDS011;19221;42.656;21.156;2023-02-18T06:40:13;48.28;;;27.27;;
32198;SDS011;19221;42.656;21.156;2023-02-18T06:42:39;49.03;;;28.50;;
32198;SDS011;19221;42.656;21.156;2023-02-18T06:45:05;54.05;;;29.48;;
32198;SDS011;19221;42.656;21.156;2023-02-18T06:47:33;57.15;;;29.35;;
32198;SDS011;19221;42.656;21.156;2023-02-18T06:49:59;60.28;;;29.20;;
32198;SDS011;19221;42.656;21.156;2023-02-18T06:52:26;53.55;;;30.50;;
32198;SDS011;19221;42.656;21.156;2023-02-18T06:54:52;57.53;;;31.33;;
32198;SDS011;19221;42.656;21.156;2023-02-18T06:57:17;57.35;;;33.05;;
32198;SDS011;19221;42.656;21.156;2023-02-18T06:59:43;53.15;;;31.58;;
32198;SDS011;19221;42.656;21.156;2023-02-18T07:02:10;60.75;;;32.90;;
32198;SDS011;19221;42.656;21.156;2023-02-18T07:04:35;60.97;;;30.92;;
32198;SDS011;19221;42.656;21.156;2023-02-18T07:07:01;52.88;;;31.25;;
32198;SDS011;19221;42.656;21.156;2023-02-18T07:09:27;57.47;;;33.28;;
32198;SDS011;19221;42.656;21.156;2023-02-18T07:11:52;55.38;;;31.90;;
32198;SDS011;19221;42.656;21.156;2023-02-18T07:14:18;61.50;;;33.78;;
32198;SDS011;19221;42.656;21.156;2023-02-18T07:16:44;53.22;;;30.83;;
32198;SDS011;19221;42.656;21.156;2023-02-18T07:19:09;57.08;;;31.63;;
32198;SDS011;19221;42.656;21.156;2023-02-18T07:21:35;51.03;;;30.33;;
32198;SDS011;19221;42.656;21.156;2023-02-18T07:24:00;55.72;;;30.27;;
32198;SDS011;19221;42.656;21.156;2023-02-18T07:26:26;52.63;;;30.58;;
32198;SDS011;19221;42.656;21.156;2023-02-18T07:28:52;58.97;;;31.75;;
32198;SDS011;19221;42.656;21.156;2023-02-18T07:31:17;60.17;;;34.03;;
32198;SDS011;19221;42.656;21.156;2023-02-18T07:33:43;62.78;;;36.28;;
32198;SDS011;19221;42.656;21.156;2023-02-18T07:36:09;77.32;;;45.17;;
32198;SDS011;19221;42.656;21.156;2023-02-18T07:38:34;79.80;;;43.50;;
32198;SDS011;19221;42.656;21.156;2023-02-18T07:41:00;74.30;;;42.38;;
32198;SDS011;19221;42.656;21.156;2023-02-18T07:43:26;58.85;;;31.75;;
32198;SDS011;19221;42.656;21.156;2023-02-18T07:45:51;61.22;;;33.97;;
32198;SDS011;19221;42.656;21.156;2023-02-18T07:48:17;64.85;;;34.42;;
32198;SDS011;19221;42.656;21.156;2023-02-18T07:50:44;58.10;;;29.23;;
32198;SDS011;19221;42.656;21.156;2023-02-18T07:53:10;49.13;;;26.50;;
32198;SDS011;19221;42.656;21.156;2023-02-18T07:55:36;53.72;;;28.08;;
32198;SDS011;19221;42.656;21.156;2023-02-18T07:58:15;44.78;;;25.25;;
32198;SDS011;19221;42.656;21.156;2023-02-18T08:00:41;52.20;;;25.52;;
32198;SDS011;19221;42.656;21.156;2023-02-18T08:03:07;47.47;;;25.17;;
32198;SDS011;19221;42.656;21.156;2023-02-18T08:05:33;50.35;;;25.83;;
32198;SDS011;19221;42.656;21.156;2023-02-18T08:07:58;46.45;;;25.67;;
32198;SDS011;19221;42.656;21.156;2023-02-18T08:10:24;40.50;;;20.13;;
32198;SDS011;19221;42.656;21.156;2023-02-18T08:12:49;34.13;;;18.75;;
32198;SDS011;19221;42.656;21.156;2023-02-18T08:15:15;33.63;;;15.82;;
32198;SDS011;19221;42.656;21.156;2023-02-18T08:17:41;33.15;;;16.75;;
32198;SDS011;19221;42.656;21.156;2023-02-18T08:20:07;32.05;;;16.98;;
32198;SDS011;19221;42.656;21.156;2023-02-18T08:22:32;22.80;;;13.73;;
32198;SDS011;19221;42.656;21.156;2023-02-18T08:24:58;21.90;;;13.55;;
32198;SDS011;19221;42.656;21.156;2023-02-18T08:27:24;28.33;;;15.80;;
32198;SDS011;19221;42.656;21.156;2023-02-18T08:29:50;28.35;;;15.23;;
32198;SDS011;19221;42.656;21.156;2023-02-18T08:32:15;27.00;;;15.43;;
32198;SDS011;19221;42.656;21.156;2023-02-18T08:34:41;26.58;;;14.18;;
32198;SDS011;19221;42.656;21.156;2023-02-18T08:37:06;32.88;;;17.05;;
32198;SDS011;19221;42.656;21.156;2023-02-18T08:39:36;20.75;;;13.65;;
32198;SDS011;19221;42.656;21.156;2023-02-18T08:42:02;29.05;;;15.35;;
32198;SDS011;19221;42.656;21.156;2023-02-18T08:44:28;28.83;;;14.30;;
32198;SDS011;19221;42.656;21.156;2023-02-18T08:46:53;21.92;;;12.50;;
32198;SDS011;19221;42.656;21.156;2023-02-18T08:49:19;22.17;;;13.38;;
32198;SDS011;19221;42.656;21.156;2023-02-18T08:51:45;25.67;;;13.95;;
32198;SDS011;19221;42.656;21.156;2023-02-18T08:54:11;27.60;;;14.45;;
32198;SDS011;19221;42.656;21.156;2023-02-18T08:56:37;28.35;;;14.10;;
32198;SDS011;19221;42.656;21.156;2023-02-18T08:59:04;23.45;;;13.15;;
32198;SDS011;19221;42.656;21.156;2023-02-18T09:01:29;25.77;;;14.95;;
32198;SDS011;19221;42.656;21.156;2023-02-18T09:03:55;26.80;;;13.57;;
32198;SDS011;19221;42.656;21.156;2023-02-18T09:06:21;21.95;;;12.65;;
32198;SDS011;19221;42.656;21.156;2023-02-18T09:08:47;19.90;;;12.55;;
32198;SDS011;19221;42.656;21.156;2023-02-18T09:11:13;25.05;;;13.60;;
32198;SDS011;19221;42.656;21.156;2023-02-18T09:13:39;23.98;;;13.65;;
32198;SDS011;19221;42.656;21.156;2023-02-18T09:16:05;29.30;;;13.80;;
32198;SDS011;19221;42.656;21.156;2023-02-18T09:18:31;19.35;;;11.32;;
32198;SDS011;19221;42.656;21.156;2023-02-18T09:20:58;21.70;;;12.77;;
32198;SDS011;19221;42.656;21.156;2023-02-18T09:23:24;25.35;;;11.68;;
32198;SDS011;19221;42.656;21.156;2023-02-18T09:25:50;28.65;;;13.32;;
32198;SDS011;19221;42.656;21.156;2023-02-18T09:28:16;20.50;;;12.00;;
32198;SDS011;19221;42.656;21.156;2023-02-18T09:30:42;28.33;;;13.35;;
32198;SDS011;19221;42.656;21.156;2023-02-18T09:33:08;30.55;;;14.25;;
32198;SDS011;19221;42.656;21.156;2023-02-18T09:35:37;27.65;;;14.45;;
32198;SDS011;19221;42.656;21.156;2023-02-18T09:38:02;20.02;;;12.55;;
32198;SDS011;19221;42.656;21.156;2023-02-18T09:40:30;23.63;;;13.32;;
32198;SDS011;19221;42.656;21.156;2023-02-18T09:42:56;23.05;;;12.60;;
32198;SDS011;19221;42.656;21.156;2023-02-18T09:45:23;18.90;;;11.05;;
32198;SDS011;19221;42.656;21.156;2023-02-18T09:47:48;18.00;;;11.18;;
32198;SDS011;19221;42.656;21.156;2023-02-18T09:50:19;20.50;;;13.43;;
32198;SDS011;19221;42.656;21.156;2023-02-18T09:52:46;18.52;;;11.98;;
32198;SDS011;19221;42.656;21.156;2023-02-18T09:55:26;20.52;;;11.60;;
32198;SDS011;19221;42.656;21.156;2023-02-18T09:57:53;21.47;;;12.07;;
32198;SDS011;19221;42.656;21.156;2023-02-18T10:01:05;21.58;;;12.32;;
32198;SDS011;19221;42.656;21.156;2023-02-18T10:03:12;17.10;;;11.60;;
32198;SDS011;19221;42.656;21.156;2023-02-18T10:05:40;25.08;;;13.15;;
32198;SDS011;19221;42.656;21.156;2023-02-18T10:08:14;23.20;;;13.48;;
32198;SDS011;19221;42.656;21.156;2023-02-18T10:10:44;26.77;;;11.77;;
32198;SDS011;19221;42.656;21.156;2023-02-18T10:13:20;27.52;;;13.52;;
32198;SDS011;19221;42.656;21.156;2023-02-18T10:15:47;27.02;;;12.75;;
32198;SDS011;19221;42.656;21.156;2023-02-18T10:18:24;25.33;;;13.48;;
32198;SDS011;19221;42.656;21.156;2023-02-18T10:20:51;23.27;;;12.20;;
32198;SDS011;19221;42.656;21.156;2023-02-18T10:23:18;19.75;;;11.98;;
32198;SDS011;19221;42.656;21.156;2023-02-18T10:25:44;28.50;;;12.95;;
32198;SDS011;19221;42.656;21.156;2023-02-18T10:28:11;23.20;;;12.52;;
32198;SDS011;19221;42.656;21.156;2023-02-18T10:30:47;21.55;;;12.10;;
32198;SDS011;19221;42.656;21.156;2023-02-18T10:33:35;20.33;;;10.85;;
32198;SDS011;19221;42.656;21.156;2023-02-18T10:38:45;17.77;;;11.55;;
32198;SDS011;19221;42.656;21.156;2023-02-18T10:41:21;29.13;;;13.75;;
32198;SDS011;19221;42.656;21.156;2023-02-18T10:51:49;30.05;;;14.23;;
32198;SDS011;19221;42.656;21.156;2023-02-18T10:54:15;22.77;;;12.98;;
32198;SDS011;19221;42.656;21.156;2023-02-18T10:56:50;19.77;;;11.57;;
32198;SDS011;19221;42.656;21.156;2023-02-18T10:59:23;21.23;;;11.82;;
32198;SDS011;19221;42.656;21.156;2023-02-18T11:01:57;19.33;;;12.18;;
32198;SDS011;19221;42.656;21.156;2023-02-18T11:04:27;30.48;;;14.35;;
32198;SDS011;19221;42.656;21.156;2023-02-18T11:07:01;19.05;;;12.02;;
32198;SDS011;19221;42.656;21.156;2023-02-18T11:09:41;20.45;;;11.73;;
32198;SDS011;19221;42.656;21.156;2023-02-18T11:15:04;23.52;;;11.55;;
32198;SDS011;19221;42.656;21.156;2023-02-18T11:17:30;24.70;;;13.07;;
32198;SDS011;19221;42.656;21.156;2023-02-18T11:19:57;22.42;;;12.38;;
32198;SDS011;19221;42.656;21.156;2023-02-18T11:22:24;17.42;;;10.82;;
32198;SDS011;19221;42.656;21.156;2023-02-18T11:24:53;18.58;;;11.32;;
32198;SDS011;19221;42.656;21.156;2023-02-18T11:29:49;21.33;;;12.90;;
32198;SDS011;19221;42.656;21.156;2023-02-18T11:32:15;18.60;;;11.82;;
32198;SDS011;19221;42.656;21.156;2023-02-18T11:34:41;16.27;;;10.35;;
32198;SDS011;19221;42.656;21.156;2023-02-18T11:37:11;15.80;;;10.60;;
32198;SDS011;19221;42.656;21.156;2023-02-18T11:39:42;15.38;;;9.95;;
32198;SDS011;19221;42.656;21.156;2023-02-18T11:42:10;17.17;;;9.82;;
32198;SDS011;19221;42.656;21.156;2023-02-18T11:44:39;17.05;;;9.23;;
32198;SDS011;19221;42.656;21.156;2023-02-18T11:47:16;17.35;;;9.25;;
32198;SDS011;19221;42.656;21.156;2023-02-18T11:49:44;19.83;;;8.95;;
32198;SDS011;19221;42.656;21.156;2023-02-18T11:52:24;19.23;;;8.70;;
32198;SDS011;19221;42.656;21.156;2023-02-18T11:54:58;16.55;;;9.48;;
32198;SDS011;19221;42.656;21.156;2023-02-18T11:57:24;15.30;;;9.02;;
32198;SDS011;19221;42.656;21.156;2023-02-18T11:59:51;15.77;;;9.93;;
32198;SDS011;19221;42.656;21.156;2023-02-18T12:04:56;15.85;;;10.25;;
32198;SDS011;19221;42.656;21.156;2023-02-18T12:07:24;21.77;;;10.32;;
32198;SDS011;19221;42.656;21.156;2023-02-18T12:09:55;16.65;;;9.15;;
32198;SDS011;19221;42.656;21.156;2023-02-18T12:14:47;17.52;;;9.00;;
32198;SDS011;19221;42.656;21.156;2023-02-18T12:30:19;14.50;;;9.27;;
32198;SDS011;19221;42.656;21.156;2023-02-18T12:43:01;21.63;;;12.30;;
32198;SDS011;19221;42.656;21.156;2023-02-18T12:51:24;17.65;;;9.48;;
32198;SDS011;19221;42.656;21.156;2023-02-18T13:03:49;16.23;;;9.20;;
32198;SDS011;19221;42.656;21.156;2023-02-18T13:06:27;18.05;;;9.48;;
32198;SDS011;19221;42.656;21.156;2023-02-18T13:11:56;20.92;;;12.05;;
32198;SDS011;19221;42.656;21.156;2023-02-18T13:14:28;18.55;;;10.45;;
32198;SDS011;19221;42.656;21.156;2023-02-18T13:16:56;18.52;;;10.18;;
32198;SDS011;19221;42.656;21.156;2023-02-18T13:19:26;20.02;;;11.38;;
32198;SDS011;19221;42.656;21.156;2023-02-18T13:21:56;21.58;;;10.35;;
32198;SDS011;19221;42.656;21.156;2023-02-18T13:27:20;20.27;;;9.88;;
32198;SDS011;19221;42.656;21.156;2023-02-18T13:32:38;19.77;;;9.65;;
32198;SDS011;19221;42.656;21.156;2023-02-18T13:40:01;17.55;;;10.57;;
32198;SDS011;19221;42.656;21.156;2023-02-18T13:50:12;28.45;;;11.07;;
32198;SDS011;19221;42.656;21.156;2023-02-18T13:52:38;16.33;;;10.18;;
32198;SDS011;19221;42.656;21.156;2023-02-18T13:55:03;19.30;;;12.15;;
32198;SDS011;19221;42.656;21.156;2023-02-18T13:57:29;21.05;;;10.75;;
32198;SDS011;19221;42.656;21.156;2023-02-18T14:00:01;24.85;;;11.88;;
32198;SDS011;19221;42.656;21.156;2023-02-18T14:02:29;22.88;;;10.68;;
32198;SDS011;19221;42.656;21.156;2023-02-18T14:04:55;21.33;;;10.32;;
32198;SDS011;19221;42.656;21.156;2023-02-18T14:07:24;20.42;;;10.43;;
32198;SDS011;19221;42.656;21.156;2023-02-18T14:09:51;21.67;;;11.60;;
32198;SDS011;19221;42.656;21.156;2023-02-18T14:12:23;26.77;;;11.65;;
32198;SDS011;19221;42.656;21.156;2023-02-18T14:14:49;27.92;;;9.45;;
32198;SDS011;19221;42.656;21.156;2023-02-18T14:19:53;17.25;;;9.70;;
32198;SDS011;19221;42.656;21.156;2023-02-18T14:22:26;23.27;;;11.77;;
32198;SDS011;19221;42.656;21.156;2023-02-18T14:24:59;21.38;;;12.15;;
32198;SDS011;19221;42.656;21.156;2023-02-18T14:27:24;20.60;;;10.25;;
32198;SDS011;19221;42.656;21.156;2023-02-18T14:29:50;17.17;;;9.00;;
32198;SDS011;19221;42.656;21.156;2023-02-18T14:32:16;17.25;;;10.73;;
32198;SDS011;19221;42.656;21.156;2023-02-18T14:34:52;16.20;;;9.77;;
32198;SDS011;19221;42.656;21.156;2023-02-18T14:42:36;29.00;;;12.65;;
32198;SDS011;19221;42.656;21.156;2023-02-18T14:50:18;18.50;;;9.10;;
32198;SDS011;19221;42.656;21.156;2023-02-18T14:52:46;15.55;;;9.77;;
32198;SDS011;19221;42.656;21.156;2023-02-18T14:55:32;15.77;;;8.50;;
32198;SDS011;19221;42.656;21.156;2023-02-18T14:57:59;23.70;;;9.70;;
32198;SDS011;19221;42.656;21.156;2023-02-18T15:00:27;20.98;;;12.32;;
32198;SDS011;19221;42.656;21.156;2023-02-18T15:02:57;22.02;;;12.02;;
32198;SDS011;19221;42.656;21.156;2023-02-18T15:05:25;17.63;;;9.77;;
32198;SDS011;19221;42.656;21.156;2023-02-18T15:13:53;24.10;;;13.07;;
32198;SDS011;19221;42.656;21.156;2023-02-18T15:16:13;21.98;;;11.63;;
32198;SDS011;19221;42.656;21.156;2023-02-18T15:18:42;16.67;;;9.23;;
32198;SDS011;19221;42.656;21.156;2023-02-18T15:26:26;18.45;;;10.70;;
32198;SDS011;19221;42.656;21.156;2023-02-18T15:28:59;25.08;;;11.23;;
32198;SDS011;19221;42.656;21.156;2023-02-18T15:31:26;16.05;;;9.75;;
32198;SDS011;19221;42.656;21.156;2023-02-18T15:33:52;15.88;;;8.43;;
32198;SDS011;19221;42.656;21.156;2023-02-18T15:36:17;21.67;;;10.15;;
32198;SDS011;19221;42.656;21.156;2023-02-18T15:38:43;21.52;;;9.40;;
32198;SDS011;19221;42.656;21.156;2023-02-18T15:41:10;21.23;;;11.25;;
32198;SDS011;19221;42.656;21.156;2023-02-18T15:43:38;22.55;;;10.70;;
32198;SDS011;19221;42.656;21.156;2023-02-18T15:46:12;18.25;;;10.43;;
32198;SDS011;19221;42.656;21.156;2023-02-18T15:48:42;17.80;;;10.43;;
32198;SDS011;19221;42.656;21.156;2023-02-18T15:51:10;23.98;;;10.98;;
32198;SDS011;19221;42.656;21.156;2023-02-18T15:53:37;17.88;;;9.65;;
32198;SDS011;19221;42.656;21.156;2023-02-18T15:56:11;19.35;;;10.38;;
32198;SDS011;19221;42.656;21.156;2023-02-18T15:58:39;16.63;;;10.82;;
32198;SDS011;19221;42.656;21.156;2023-02-18T16:01:06;21.95;;;11.35;;
32198;SDS011;19221;42.656;21.156;2023-02-18T16:09:02;21.25;;;11.07;;
32198;SDS011;19221;42.656;21.156;2023-02-18T16:11:37;17.73;;;12.52;;
32198;SDS011;19221;42.656;21.156;2023-02-18T16:14:03;30.17;;;13.85;;
32198;SDS011;19221;42.656;21.156;2023-02-18T16:16:35;24.02;;;14.40;;
32198;SDS011;19221;42.656;21.156;2023-02-18T16:19:01;28.17;;;16.85;;
32198;SDS011;19221;42.656;21.156;2023-02-18T16:21:40;23.33;;;12.93;;
32198;SDS011;19221;42.656;21.156;2023-02-18T16:24:26;37.53;;;16.70;;
32198;SDS011;19221;42.656;21.156;2023-02-18T16:26:53;30.98;;;15.23;;
32198;SDS011;19221;42.656;21.156;2023-02-18T16:31:50;20.48;;;12.32;;
32198;SDS011;19221;42.656;21.156;2023-02-18T16:34:16;23.88;;;14.02;;
32198;SDS011;19221;42.656;21.156;2023-02-18T16:36:47;26.75;;;13.93;;
32198;SDS011;19221;42.656;21.156;2023-02-18T16:39:32;28.30;;;15.60;;
32198;SDS011;19221;42.656;21.156;2023-02-18T16:41:58;29.17;;;15.93;;
32198;SDS011;19221;42.656;21.156;2023-02-18T16:44:24;38.53;;;16.55;;